sensor_id;sensor_type;location;lat;lon;timestamp;P1;durP1;ratioP1;P2;durP2;ratioP2
19965;SDS011;10144;50.874;4.762;2022-07-04T00:02:22;10.73;;;2.70;;
19965;SDS011;10144;50.874;4.762;2022-07-04T00:04:48;5.10;;;2.42;;
19965;SDS011;10144;50.874;4.762;2022-07-04T00:07:15;6.55;;;2.22;;
19965;SDS011;10144;50.874;4.762;2022-07-04T00:09:44;8.98;;;2.30;;
19965;SDS011;10144;50.874;4.762;2022-07-04T00:12:10;5.72;;;2.63;;
19965;SDS011;10144;50.874;4.762;2022-07-04T00:14:39;9.10;;;2.47;;
19965;SDS011;10144;50.874;4.762;2022-07-04T00:17:05;9.00;;;1.92;;
19965;SDS011;10144;50.874;4.762;2022-07-04T00:19:31;8.48;;;2.47;;
19965;SDS011;10144;50.874;4.762;2022-07-04T00:22:02;5.43;;;2.00;;
19965;SDS011;10144;50.874;4.762;2022-07-04T00:24:30;5.22;;;2.38;;
19965;SDS011;10144;50.874;4.762;2022-07-04T00:26:57;5.78;;;2.22;;
19965;SDS011;10144;50.874;4.762;2022-07-04T00:29:23;7.18;;;2.42;;
19965;SDS011;10144;50.874;4.762;2022-07-04T00:31:49;6.55;;;2.30;;
19965;SDS011;10144;50.874;4.762;2022-07-04T00:34:15;5.72;;;2.40;;
19965;SDS011;10144;50.874;4.762;2022-07-04T00:36:43;6.93;;;2.60;;
19965;SDS011;10144;50.874;4.762;2022-07-04T00:39:08;7.57;;;2.50;;
19965;SDS011;10144;50.874;4.762;2022-07-04T00:41:42;4.15;;;2.45;;
19965;SDS011;10144;50.874;4.762;2022-07-04T00:44:11;8.60;;;3.03;;
19965;SDS011;10144;50.874;4.762;2022-07-04T00:46:40;5.80;;;2.45;;
19965;SDS011;10144;50.874;4.762;2022-07-04T00:54:18;8.18;;;3.08;;
19965;SDS011;10144;50.874;4.762;2022-07-04T00:56:48;8.70;;;3.05;;
19965;SDS011;10144;50.874;4.762;2022-07-04T01:01:46;10.10;;;2.80;;
19965;SDS011;10144;50.874;4.762;2022-07-04T01:04:19;9.93;;;2.88;;
19965;SDS011;10144;50.874;4.762;2022-07-04T01:06:45;9.07;;;2.55;;
19965;SDS011;10144;50.874;4.762;2022-07-04T01:09:17;5.38;;;2.60;;
19965;SDS011;10144;50.874;4.762;2022-07-04T01:11:48;5.88;;;2.45;;
19965;SDS011;10144;50.874;4.762;2022-07-04T01:14:18;8.45;;;2.70;;
19965;SDS011;10144;50.874;4.762;2022-07-04T01:16:49;6.05;;;2.72;;
19965;SDS011;10144;50.874;4.762;2022-07-04T01:19:17;8.40;;;3.00;;
19965;SDS011;10144;50.874;4.762;2022-07-04T01:21:46;11.48;;;3.00;;
19965;SDS011;10144;50.874;4.762;2022-07-04T01:24:18;5.70;;;2.63;;
19965;SDS011;10144;50.874;4.762;2022-07-04T01:26:46;5.65;;;2.55;;
19965;SDS011;10144;50.874;4.762;2022-07-04T01:31:45;6.28;;;2.90;;
19965;SDS011;10144;50.874;4.762;2022-07-04T01:36:43;9.02;;;2.53;;
19965;SDS011;10144;50.874;4.762;2022-07-04T01:39:10;5.85;;;2.50;;
19965;SDS011;10144;50.874;4.762;2022-07-04T01:41:39;6.05;;;2.70;;
19965;SDS011;10144;50.874;4.762;2022-07-04T01:44:11;4.75;;;2.47;;
19965;SDS011;10144;50.874;4.762;2022-07-04T01:49:12;6.65;;;2.83;;
19965;SDS011;10144;50.874;4.762;2022-07-04T01:51:46;7.00;;;2.70;;
19965;SDS011;10144;50.874;4.762;2022-07-04T01:54:25;6.93;;;2.88;;
19965;SDS011;10144;50.874;4.762;2022-07-04T01:56:51;10.55;;;3.08;;
19965;SDS011;10144;50.874;4.762;2022-07-04T01:59:20;14.15;;;3.10;;
19965;SDS011;10144;50.874;4.762;2022-07-04T02:02:09;7.93;;;3.08;;
19965;SDS011;10144;50.874;4.762;2022-07-04T02:07:06;5.65;;;2.83;;
19965;SDS011;10144;50.874;4.762;2022-07-04T02:09:38;12.13;;;2.83;;
19965;SDS011;10144;50.874;4.762;2022-07-04T02:14:54;7.50;;;2.90;;
19965;SDS011;10144;50.874;4.762;2022-07-04T02:19:50;8.75;;;3.03;;
19965;SDS011;10144;50.874;4.762;2022-07-04T02:22:21;5.38;;;3.00;;
19965;SDS011;10144;50.874;4.762;2022-07-04T02:24:50;6.97;;;2.83;;
19965;SDS011;10144;50.874;4.762;2022-07-04T02:27:18;6.63;;;2.78;;
19965;SDS011;10144;50.874;4.762;2022-07-04T02:29:47;10.45;;;2.85;;
19965;SDS011;10144;50.874;4.762;2022-07-04T02:32:18;8.73;;;3.33;;
19965;SDS011;10144;50.874;4.762;2022-07-04T02:34:47;6.65;;;2.80;;
19965;SDS011;10144;50.874;4.762;2022-07-04T02:39:42;10.55;;;3.08;;
19965;SDS011;10144;50.874;4.762;2022-07-04T02:42:14;8.80;;;2.88;;
19965;SDS011;10144;50.874;4.762;2022-07-04T02:44:43;7.03;;;2.60;;
19965;SDS011;10144;50.874;4.762;2022-07-04T02:47:13;6.97;;;3.13;;
19965;SDS011;10144;50.874;4.762;2022-07-04T02:52:23;6.70;;;2.97;;
19965;SDS011;10144;50.874;4.762;2022-07-04T02:54:52;8.75;;;3.08;;
19965;SDS011;10144;50.874;4.762;2022-07-04T02:57:21;10.10;;;2.90;;
19965;SDS011;10144;50.874;4.762;2022-07-04T02:59:50;10.05;;;3.22;;
19965;SDS011;10144;50.874;4.762;2022-07-04T03:02:19;8.45;;;3.10;;
19965;SDS011;10144;50.874;4.762;2022-07-04T03:07:16;13.73;;;3.42;;
19965;SDS011;10144;50.874;4.762;2022-07-04T03:09:43;6.82;;;2.80;;
19965;SDS011;10144;50.874;4.762;2022-07-04T03:12:12;6.68;;;2.80;;
19965;SDS011;10144;50.874;4.762;2022-07-04T03:14:44;7.45;;;2.97;;
19965;SDS011;10144;50.874;4.762;2022-07-04T03:17:10;6.55;;;3.10;;
19965;SDS011;10144;50.874;4.762;2022-07-04T03:19:45;12.43;;;3.20;;
19965;SDS011;10144;50.874;4.762;2022-07-04T03:24:43;8.40;;;3.13;;
19965;SDS011;10144;50.874;4.762;2022-07-04T03:27:10;6.07;;;2.85;;
19965;SDS011;10144;50.874;4.762;2022-07-04T03:32:10;6.47;;;3.00;;
19965;SDS011;10144;50.874;4.762;2022-07-04T03:34:37;7.90;;;3.10;;
19965;SDS011;10144;50.874;4.762;2022-07-04T03:37:05;10.23;;;3.38;;
19965;SDS011;10144;50.874;4.762;2022-07-04T03:39:33;7.03;;;3.20;;
19965;SDS011;10144;50.874;4.762;2022-07-04T03:42:02;5.97;;;2.97;;
19965;SDS011;10144;50.874;4.762;2022-07-04T03:44:27;6.10;;;2.67;;
19965;SDS011;10144;50.874;4.762;2022-07-04T03:46:54;4.63;;;3.00;;
19965;SDS011;10144;50.874;4.762;2022-07-04T03:51:52;5.35;;;3.13;;
19965;SDS011;10144;50.874;4.762;2022-07-04T03:54:23;6.85;;;3.22;;
19965;SDS011;10144;50.874;4.762;2022-07-04T03:56:50;6.97;;;3.22;;
19965;SDS011;10144;50.874;4.762;2022-07-04T03:59:19;12.32;;;3.28;;
19965;SDS011;10144;50.874;4.762;2022-07-04T04:04:13;8.23;;;3.30;;
19965;SDS011;10144;50.874;4.762;2022-07-04T04:07:00;6.45;;;3.40;;
19965;SDS011;10144;50.874;4.762;2022-07-04T04:09:32;6.70;;;3.33;;
19965;SDS011;10144;50.874;4.762;2022-07-04T04:12:05;9.52;;;3.30;;
19965;SDS011;10144;50.874;4.762;2022-07-04T04:14:40;7.97;;;3.30;;
19965;SDS011;10144;50.874;4.762;2022-07-04T04:17:09;12.25;;;3.63;;
19965;SDS011;10144;50.874;4.762;2022-07-04T04:19:35;6.22;;;2.72;;
19965;SDS011;10144;50.874;4.762;2022-07-04T04:24:39;8.82;;;3.50;;
19965;SDS011;10144;50.874;4.762;2022-07-04T04:27:10;6.82;;;3.08;;
19965;SDS011;10144;50.874;4.762;2022-07-04T04:32:11;10.50;;;2.80;;
19965;SDS011;10144;50.874;4.762;2022-07-04T04:37:07;6.32;;;2.35;;
19965;SDS011;10144;50.874;4.762;2022-07-04T04:39:40;9.15;;;2.88;;
19965;SDS011;10144;50.874;4.762;2022-07-04T04:42:07;6.07;;;2.42;;
19965;SDS011;10144;50.874;4.762;2022-07-04T04:44:33;11.23;;;2.72;;
19965;SDS011;10144;50.874;4.762;2022-07-04T04:47:02;5.43;;;2.35;;
19965;SDS011;10144;50.874;4.762;2022-07-04T04:49:28;7.32;;;2.40;;
19965;SDS011;10144;50.874;4.762;2022-07-04T04:51:57;5.30;;;2.40;;
19965;SDS011;10144;50.874;4.762;2022-07-04T04:54:23;6.78;;;2.47;;
19965;SDS011;10144;50.874;4.762;2022-07-04T04:56:50;6.28;;;2.47;;
19965;SDS011;10144;50.874;4.762;2022-07-04T04:59:19;4.85;;;2.50;;
19965;SDS011;10144;50.874;4.762;2022-07-04T05:01:48;4.75;;;2.40;;
19965;SDS011;10144;50.874;4.762;2022-07-04T05:04:15;4.90;;;2.30;;
19965;SDS011;10144;50.874;4.762;2022-07-04T05:06:47;6.35;;;2.45;;
19965;SDS011;10144;50.874;4.762;2022-07-04T05:09:22;6.38;;;2.10;;
19965;SDS011;10144;50.874;4.762;2022-07-04T05:14:19;5.53;;;2.10;;
19965;SDS011;10144;50.874;4.762;2022-07-04T05:16:48;3.67;;;2.08;;
19965;SDS011;10144;50.874;4.762;2022-07-04T05:19:20;7.30;;;2.25;;
19965;SDS011;10144;50.874;4.762;2022-07-04T05:21:45;6.15;;;1.90;;
19965;SDS011;10144;50.874;4.762;2022-07-04T05:24:11;11.48;;;2.20;;
19965;SDS011;10144;50.874;4.762;2022-07-04T05:26:40;7.45;;;2.33;;
19965;SDS011;10144;50.874;4.762;2022-07-04T05:34:03;5.10;;;2.00;;
19965;SDS011;10144;50.874;4.762;2022-07-04T05:36:32;5.10;;;2.25;;
19965;SDS011;10144;50.874;4.762;2022-07-04T05:38:59;6.25;;;2.40;;
19965;SDS011;10144;50.874;4.762;2022-07-04T05:41:26;8.98;;;2.40;;
19965;SDS011;10144;50.874;4.762;2022-07-04T05:43:52;4.82;;;1.70;;
19965;SDS011;10144;50.874;4.762;2022-07-04T05:46:18;9.40;;;2.08;;
19965;SDS011;10144;50.874;4.762;2022-07-04T05:48:43;4.70;;;2.33;;
19965;SDS011;10144;50.874;4.762;2022-07-04T05:56:53;6.28;;;1.52;;
19965;SDS011;10144;50.874;4.762;2022-07-04T05:59:21;7.05;;;1.90;;
19965;SDS011;10144;50.874;4.762;2022-07-04T06:01:50;6.13;;;1.90;;
19965;SDS011;10144;50.874;4.762;2022-07-04T06:04:17;5.50;;;1.65;;
19965;SDS011;10144;50.874;4.762;2022-07-04T06:06:49;4.93;;;1.55;;
19965;SDS011;10144;50.874;4.762;2022-07-04T06:09:15;4.88;;;1.70;;
19965;SDS011;10144;50.874;4.762;2022-07-04T06:14:10;4.63;;;1.58;;
19965;SDS011;10144;50.874;4.762;2022-07-04T06:16:39;7.30;;;1.70;;
19965;SDS011;10144;50.874;4.762;2022-07-04T06:21:35;7.70;;;1.60;;
19965;SDS011;10144;50.874;4.762;2022-07-04T06:24:07;4.90;;;1.30;;
19965;SDS011;10144;50.874;4.762;2022-07-04T06:26:36;6.60;;;1.38;;
19965;SDS011;10144;50.874;4.762;2022-07-04T06:29:05;5.38;;;1.30;;
19965;SDS011;10144;50.874;4.762;2022-07-04T06:31:30;24.52;;;1.83;;
19965;SDS011;10144;50.874;4.762;2022-07-04T06:33:56;3.38;;;1.20;;
19965;SDS011;10144;50.874;4.762;2022-07-04T06:37:00;3.80;;;1.30;;
19965;SDS011;10144;50.874;4.762;2022-07-04T06:39:26;6.30;;;1.40;;
19965;SDS011;10144;50.874;4.762;2022-07-04T06:41:52;7.10;;;1.83;;
19965;SDS011;10144;50.874;4.762;2022-07-04T06:44:17;5.15;;;1.42;;
19965;SDS011;10144;50.874;4.762;2022-07-04T06:46:43;5.20;;;1.50;;
19965;SDS011;10144;50.874;4.762;2022-07-04T06:49:10;5.72;;;1.40;;
19965;SDS011;10144;50.874;4.762;2022-07-04T06:51:36;9.35;;;1.67;;
19965;SDS011;10144;50.874;4.762;2022-07-04T06:54:01;3.42;;;1.55;;
19965;SDS011;10144;50.874;4.762;2022-07-04T06:56:27;5.30;;;1.58;;
19965;SDS011;10144;50.874;4.762;2022-07-04T06:58:53;5.70;;;1.50;;
19965;SDS011;10144;50.874;4.762;2022-07-04T07:01:18;4.47;;;1.40;;
19965;SDS011;10144;50.874;4.762;2022-07-04T07:03:44;8.23;;;1.50;;
19965;SDS011;10144;50.874;4.762;2022-07-04T07:06:09;7.45;;;1.40;;
19965;SDS011;10144;50.874;4.762;2022-07-04T07:08:35;26.17;;;4.80;;
19965;SDS011;10144;50.874;4.762;2022-07-04T07:11:01;29.45;;;4.57;;
19965;SDS011;10144;50.874;4.762;2022-07-04T07:13:38;37.50;;;3.50;;
19965;SDS011;10144;50.874;4.762;2022-07-04T07:16:09;6.60;;;1.70;;
19965;SDS011;10144;50.874;4.762;2022-07-04T07:18:35;6.03;;;1.40;;
19965;SDS011;10144;50.874;4.762;2022-07-04T07:21:01;3.33;;;1.38;;
19965;SDS011;10144;50.874;4.762;2022-07-04T07:23:26;6.10;;;1.05;;
19965;SDS011;10144;50.874;4.762;2022-07-04T07:25:52;6.40;;;1.20;;
19965;SDS011;10144;50.874;4.762;2022-07-04T07:28:19;6.47;;;1.52;;
19965;SDS011;10144;50.874;4.762;2022-07-04T07:30:44;5.68;;;1.30;;
19965;SDS011;10144;50.874;4.762;2022-07-04T07:33:10;6.72;;;1.13;;
19965;SDS011;10144;50.874;4.762;2022-07-04T07:35:37;4.10;;;1.10;;
19965;SDS011;10144;50.874;4.762;2022-07-04T07:38:03;3.45;;;1.15;;
19965;SDS011;10144;50.874;4.762;2022-07-04T07:40:31;3.00;;;0.98;;
19965;SDS011;10144;50.874;4.762;2022-07-04T07:42:56;5.53;;;1.20;;
19965;SDS011;10144;50.874;4.762;2022-07-04T07:45:22;6.03;;;1.33;;
19965;SDS011;10144;50.874;4.762;2022-07-04T07:47:48;2.67;;;1.20;;
19965;SDS011;10144;50.874;4.762;2022-07-04T07:50:14;4.85;;;1.42;;
19965;SDS011;10144;50.874;4.762;2022-07-04T07:52:39;3.60;;;1.25;;
19965;SDS011;10144;50.874;4.762;2022-07-04T07:55:06;6.05;;;1.20;;
19965;SDS011;10144;50.874;4.762;2022-07-04T07:57:32;7.03;;;1.20;;
19965;SDS011;10144;50.874;4.762;2022-07-04T07:59:57;3.28;;;1.10;;
19965;SDS011;10144;50.874;4.762;2022-07-04T08:02:23;5.03;;;1.10;;
19965;SDS011;10144;50.874;4.762;2022-07-04T08:05:09;8.20;;;1.10;;
19965;SDS011;10144;50.874;4.762;2022-07-04T08:07:36;12.15;;;1.50;;
19965;SDS011;10144;50.874;4.762;2022-07-04T08:10:02;5.13;;;1.10;;
19965;SDS011;10144;50.874;4.762;2022-07-04T08:12:28;4.13;;;1.30;;
19965;SDS011;10144;50.874;4.762;2022-07-04T08:14:54;5.22;;;1.00;;
19965;SDS011;10144;50.874;4.762;2022-07-04T08:17:20;3.80;;;1.20;;
19965;SDS011;10144;50.874;4.762;2022-07-04T08:19:45;4.68;;;1.20;;
19965;SDS011;10144;50.874;4.762;2022-07-04T08:22:12;10.32;;;1.10;;
19965;SDS011;10144;50.874;4.762;2022-07-04T08:27:14;2.78;;;1.00;;
19965;SDS011;10144;50.874;4.762;2022-07-04T08:29:43;2.28;;;0.93;;
19965;SDS011;10144;50.874;4.762;2022-07-04T08:32:12;5.80;;;1.15;;
19965;SDS011;10144;50.874;4.762;2022-07-04T08:34:43;6.95;;;1.02;;
19965;SDS011;10144;50.874;4.762;2022-07-04T08:37:10;4.68;;;0.95;;
19965;SDS011;10144;50.874;4.762;2022-07-04T08:39:39;2.92;;;0.90;;
19965;SDS011;10144;50.874;4.762;2022-07-04T08:42:16;2.90;;;1.10;;
19965;SDS011;10144;50.874;4.762;2022-07-04T08:44:50;2.33;;;1.02;;
19965;SDS011;10144;50.874;4.762;2022-07-04T08:47:23;4.50;;;1.40;;
19965;SDS011;10144;50.874;4.762;2022-07-04T08:52:34;4.00;;;1.00;;
19965;SDS011;10144;50.874;4.762;2022-07-04T08:55:05;5.57;;;1.17;;
19965;SDS011;10144;50.874;4.762;2022-07-04T08:57:52;2.70;;;1.00;;
19965;SDS011;10144;50.874;4.762;2022-07-04T09:00:37;3.38;;;1.30;;
19965;SDS011;10144;50.874;4.762;2022-07-04T09:03:03;5.93;;;1.30;;
19965;SDS011;10144;50.874;4.762;2022-07-04T09:05:30;4.00;;;1.00;;
19965;SDS011;10144;50.874;4.762;2022-07-04T09:07:59;2.92;;;1.00;;
19965;SDS011;10144;50.874;4.762;2022-07-04T09:10:26;4.95;;;1.00;;
19965;SDS011;10144;50.874;4.762;2022-07-04T09:12:53;3.53;;;0.90;;
19965;SDS011;10144;50.874;4.762;2022-07-04T09:15:19;3.47;;;1.00;;
19965;SDS011;10144;50.874;4.762;2022-07-04T09:17:45;3.60;;;0.90;;
19965;SDS011;10144;50.874;4.762;2022-07-04T09:20:12;2.97;;;1.08;;
19965;SDS011;10144;50.874;4.762;2022-07-04T09:22:45;5.07;;;1.20;;
19965;SDS011;10144;50.874;4.762;2022-07-04T09:27:44;4.80;;;1.10;;
19965;SDS011;10144;50.874;4.762;2022-07-04T09:30:18;4.03;;;1.27;;
19965;SDS011;10144;50.874;4.762;2022-07-04T09:35:20;2.05;;;1.00;;
19965;SDS011;10144;50.874;4.762;2022-07-04T09:37:48;3.58;;;1.10;;
19965;SDS011;10144;50.874;4.762;2022-07-04T09:40:33;2.55;;;0.98;;
19965;SDS011;10144;50.874;4.762;2022-07-04T09:43:18;3.92;;;1.10;;
19965;SDS011;10144;50.874;4.762;2022-07-04T09:46:00;6.20;;;1.67;;
19965;SDS011;10144;50.874;4.762;2022-07-04T09:48:26;3.35;;;1.30;;
19965;SDS011;10144;50.874;4.762;2022-07-04T09:51:19;2.92;;;1.00;;
19965;SDS011;10144;50.874;4.762;2022-07-04T09:59:14;5.93;;;1.60;;
19965;SDS011;10144;50.874;4.762;2022-07-04T10:01:40;4.15;;;0.98;;
19965;SDS011;10144;50.874;4.762;2022-07-04T10:04:06;5.13;;;1.27;;
19965;SDS011;10144;50.874;4.762;2022-07-04T10:06:33;3.90;;;1.20;;
19965;SDS011;10144;50.874;4.762;2022-07-04T10:09:09;4.75;;;1.55;;
19965;SDS011;10144;50.874;4.762;2022-07-04T10:11:39;4.05;;;1.35;;
19965;SDS011;10144;50.874;4.762;2022-07-04T10:14:06;3.50;;;1.20;;
19965;SDS011;10144;50.874;4.762;2022-07-04T10:16:33;7.15;;;1.30;;
19965;SDS011;10144;50.874;4.762;2022-07-04T10:19:00;6.05;;;1.40;;
19965;SDS011;10144;50.874;4.762;2022-07-04T10:21:25;1.83;;;1.00;;
19965;SDS011;10144;50.874;4.762;2022-07-04T10:23:52;3.63;;;1.30;;
19965;SDS011;10144;50.874;4.762;2022-07-04T10:26:18;3.97;;;1.27;;
19965;SDS011;10144;50.874;4.762;2022-07-04T10:28:44;3.30;;;1.20;;
19965;SDS011;10144;50.874;4.762;2022-07-04T10:31:12;3.70;;;1.20;;
19965;SDS011;10144;50.874;4.762;2022-07-04T10:33:40;3.30;;;1.25;;
19965;SDS011;10144;50.874;4.762;2022-07-04T10:36:24;2.30;;;1.02;;
19965;SDS011;10144;50.874;4.762;2022-07-04T10:38:59;2.03;;;1.20;;
19965;SDS011;10144;50.874;4.762;2022-07-04T10:41:26;5.43;;;1.40;;
19965;SDS011;10144;50.874;4.762;2022-07-04T10:46:34;3.47;;;1.20;;
19965;SDS011;10144;50.874;4.762;2022-07-04T10:49:23;2.97;;;1.40;;
19965;SDS011;10144;50.874;4.762;2022-07-04T10:57:05;1.52;;;1.10;;
19965;SDS011;10144;50.874;4.762;2022-07-04T10:59:36;2.17;;;1.10;;
19965;SDS011;10144;50.874;4.762;2022-07-04T11:07:14;2.80;;;1.20;;
19965;SDS011;10144;50.874;4.762;2022-07-04T11:09:40;2.45;;;1.20;;
19965;SDS011;10144;50.874;4.762;2022-07-04T11:12:07;3.88;;;1.25;;
19965;SDS011;10144;50.874;4.762;2022-07-04T11:14:38;4.10;;;1.20;;
19965;SDS011;10144;50.874;4.762;2022-07-04T11:20:01;3.33;;;1.15;;
19965;SDS011;10144;50.874;4.762;2022-07-04T11:22:28;2.85;;;1.30;;
19965;SDS011;10144;50.874;4.762;2022-07-04T11:24:55;4.95;;;1.10;;
19965;SDS011;10144;50.874;4.762;2022-07-04T11:27:21;2.78;;;1.35;;
19965;SDS011;10144;50.874;4.762;2022-07-04T11:29:54;9.07;;;1.48;;
19965;SDS011;10144;50.874;4.762;2022-07-04T11:32:20;4.80;;;1.50;;
19965;SDS011;10144;50.874;4.762;2022-07-04T11:34:55;6.53;;;2.13;;
19965;SDS011;10144;50.874;4.762;2022-07-04T11:37:20;5.68;;;2.17;;
19965;SDS011;10144;50.874;4.762;2022-07-04T11:39:50;5.75;;;2.13;;
19965;SDS011;10144;50.874;4.762;2022-07-04T11:42:38;8.43;;;3.10;;
19965;SDS011;10144;50.874;4.762;2022-07-04T11:45:23;9.13;;;2.80;;
19965;SDS011;10144;50.874;4.762;2022-07-04T11:47:49;8.13;;;2.58;;
19965;SDS011;10144;50.874;4.762;2022-07-04T11:50:15;8.93;;;3.22;;
19965;SDS011;10144;50.874;4.762;2022-07-04T11:52:47;8.93;;;3.05;;
19965;SDS011;10144;50.874;4.762;2022-07-04T11:55:18;10.45;;;3.25;;
19965;SDS011;10144;50.874;4.762;2022-07-04T11:57:48;7.40;;;2.88;;
19965;SDS011;10144;50.874;4.762;2022-07-04T12:00:24;7.90;;;2.80;;
19965;SDS011;10144;50.874;4.762;2022-07-04T12:02:51;8.07;;;2.20;;
19965;SDS011;10144;50.874;4.762;2022-07-04T12:05:17;6.10;;;2.03;;
19965;SDS011;10144;50.874;4.762;2022-07-04T12:07:45;5.25;;;1.67;;
19965;SDS011;10144;50.874;4.762;2022-07-04T12:10:13;3.80;;;1.67;;
19965;SDS011;10144;50.874;4.762;2022-07-04T12:12:50;8.35;;;2.05;;
19965;SDS011;10144;50.874;4.762;2022-07-04T12:15:17;7.43;;;2.13;;
19965;SDS011;10144;50.874;4.762;2022-07-04T12:17:43;8.95;;;2.20;;
19965;SDS011;10144;50.874;4.762;2022-07-04T12:20:13;4.68;;;1.80;;
19965;SDS011;10144;50.874;4.762;2022-07-04T12:22:43;9.13;;;2.70;;
19965;SDS011;10144;50.874;4.762;2022-07-04T12:25:34;5.55;;;1.88;;
19965;SDS011;10144;50.874;4.762;2022-07-04T12:28:06;5.90;;;1.90;;
19965;SDS011;10144;50.874;4.762;2022-07-04T12:30:35;5.70;;;1.70;;
19965;SDS011;10144;50.874;4.762;2022-07-04T12:33:03;4.25;;;1.42;;
19965;SDS011;10144;50.874;4.762;2022-07-04T12:35:41;3.55;;;1.38;;
19965;SDS011;10144;50.874;4.762;2022-07-04T12:38:51;6.90;;;1.45;;
19965;SDS011;10144;50.874;4.762;2022-07-04T12:41:00;2.85;;;1.35;;
19965;SDS011;10144;50.874;4.762;2022-07-04T12:46:07;3.95;;;1.25;;
19965;SDS011;10144;50.874;4.762;2022-07-04T12:48:37;3.53;;;1.25;;
19965;SDS011;10144;50.874;4.762;2022-07-04T12:53:40;3.22;;;1.10;;
19965;SDS011;10144;50.874;4.762;2022-07-04T12:56:09;2.58;;;1.17;;
19965;SDS011;10144;50.874;4.762;2022-07-04T12:58:52;4.00;;;1.23;;
19965;SDS011;10144;50.874;4.762;2022-07-04T13:01:18;5.32;;;1.30;;
19965;SDS011;10144;50.874;4.762;2022-07-04T13:03:43;7.05;;;1.73;;
19965;SDS011;10144;50.874;4.762;2022-07-04T13:06:09;4.28;;;1.42;;
19965;SDS011;10144;50.874;4.762;2022-07-04T13:08:34;5.28;;;1.20;;
19965;SDS011;10144;50.874;4.762;2022-07-04T13:11:00;3.80;;;1.10;;
19965;SDS011;10144;50.874;4.762;2022-07-04T13:13:45;1.88;;;1.00;;
19965;SDS011;10144;50.874;4.762;2022-07-04T13:16:10;3.33;;;1.48;;
19965;SDS011;10144;50.874;4.762;2022-07-04T13:18:36;2.45;;;1.25;;
19965;SDS011;10144;50.874;4.762;2022-07-04T13:21:02;4.88;;;1.27;;
19965;SDS011;10144;50.874;4.762;2022-07-04T13:23:27;3.10;;;1.15;;
19965;SDS011;10144;50.874;4.762;2022-07-04T13:25:53;3.70;;;1.30;;
19965;SDS011;10144;50.874;4.762;2022-07-04T13:28:18;4.13;;;1.30;;
19965;SDS011;10144;50.874;4.762;2022-07-04T13:30:44;9.20;;;1.83;;
19965;SDS011;10144;50.874;4.762;2022-07-04T13:33:10;3.35;;;1.27;;
19965;SDS011;10144;50.874;4.762;2022-07-04T13:35:36;4.22;;;1.52;;
19965;SDS011;10144;50.874;4.762;2022-07-04T13:38:01;3.05;;;1.30;;
19965;SDS011;10144;50.874;4.762;2022-07-04T13:40:27;3.33;;;1.13;;
19965;SDS011;10144;50.874;4.762;2022-07-04T13:42:53;5.70;;;1.27;;
19965;SDS011;10144;50.874;4.762;2022-07-04T13:45:22;2.08;;;1.05;;
19965;SDS011;10144;50.874;4.762;2022-07-04T13:47:47;3.92;;;1.23;;
19965;SDS011;10144;50.874;4.762;2022-07-04T13:50:13;5.68;;;1.75;;
19965;SDS011;10144;50.874;4.762;2022-07-04T13:52:40;5.45;;;1.25;;
19965;SDS011;10144;50.874;4.762;2022-07-04T13:55:06;5.78;;;1.42;;
19965;SDS011;10144;50.874;4.762;2022-07-04T13:57:32;3.25;;;1.27;;
19965;SDS011;10144;50.874;4.762;2022-07-04T13:59:58;4.32;;;1.40;;
19965;SDS011;10144;50.874;4.762;2022-07-04T14:02:23;3.08;;;1.17;;
19965;SDS011;10144;50.874;4.762;2022-07-04T14:04:49;4.57;;;1.40;;
19965;SDS011;10144;50.874;4.762;2022-07-04T14:07:15;5.75;;;1.40;;
19965;SDS011;10144;50.874;4.762;2022-07-04T14:09:41;2.63;;;1.10;;
19965;SDS011;10144;50.874;4.762;2022-07-04T14:12:06;3.40;;;1.00;;
19965;SDS011;10144;50.874;4.762;2022-07-04T14:14:32;3.22;;;1.33;;
19965;SDS011;10144;50.874;4.762;2022-07-04T14:16:58;4.18;;;1.55;;
19965;SDS011;10144;50.874;4.762;2022-07-04T14:19:24;2.83;;;1.13;;
19965;SDS011;10144;50.874;4.762;2022-07-04T14:21:50;3.45;;;1.20;;
19965;SDS011;10144;50.874;4.762;2022-07-04T14:24:16;2.55;;;1.00;;
19965;SDS011;10144;50.874;4.762;2022-07-04T14:26:42;5.65;;;1.30;;
19965;SDS011;10144;50.874;4.762;2022-07-04T14:29:08;3.03;;;1.17;;
19965;SDS011;10144;50.874;4.762;2022-07-04T14:31:34;4.78;;;1.23;;
19965;SDS011;10144;50.874;4.762;2022-07-04T14:33:59;3.03;;;1.30;;
19965;SDS011;10144;50.874;4.762;2022-07-04T14:36:27;3.13;;;1.20;;
19965;SDS011;10144;50.874;4.762;2022-07-04T14:38:52;4.07;;;1.00;;
19965;SDS011;10144;50.874;4.762;2022-07-04T14:43:47;3.67;;;1.30;;
19965;SDS011;10144;50.874;4.762;2022-07-04T14:46:13;3.47;;;1.08;;
19965;SDS011;10144;50.874;4.762;2022-07-04T14:48:38;4.78;;;1.10;;
19965;SDS011;10144;50.874;4.762;2022-07-04T14:51:04;2.92;;;1.10;;
19965;SDS011;10144;50.874;4.762;2022-07-04T14:53:30;3.38;;;1.10;;
19965;SDS011;10144;50.874;4.762;2022-07-04T14:55:56;4.47;;;1.17;;
19965;SDS011;10144;50.874;4.762;2022-07-04T14:58:22;2.03;;;0.95;;
19965;SDS011;10144;50.874;4.762;2022-07-04T15:00:48;8.18;;;1.17;;
19965;SDS011;10144;50.874;4.762;2022-07-04T15:03:13;2.28;;;1.00;;
19965;SDS011;10144;50.874;4.762;2022-07-04T15:05:39;1.95;;;1.00;;
19965;SDS011;10144;50.874;4.762;2022-07-04T15:08:06;3.83;;;1.30;;
19965;SDS011;10144;50.874;4.762;2022-07-04T15:10:31;1.92;;;1.10;;
19965;SDS011;10144;50.874;4.762;2022-07-04T15:12:57;5.38;;;1.20;;
19965;SDS011;10144;50.874;4.762;2022-07-04T15:15:24;4.72;;;1.27;;
19965;SDS011;10144;50.874;4.762;2022-07-04T15:17:50;5.22;;;1.20;;
19965;SDS011;10144;50.874;4.762;2022-07-04T15:20:18;3.33;;;1.25;;
19965;SDS011;10144;50.874;4.762;2022-07-04T15:23:02;3.30;;;1.20;;
19965;SDS011;10144;50.874;4.762;2022-07-04T15:25:46;5.57;;;1.45;;
19965;SDS011;10144;50.874;4.762;2022-07-04T15:28:12;3.53;;;1.17;;
19965;SDS011;10144;50.874;4.762;2022-07-04T15:30:39;2.55;;;1.27;;
19965;SDS011;10144;50.874;4.762;2022-07-04T15:33:05;5.90;;;1.02;;
19965;SDS011;10144;50.874;4.762;2022-07-04T15:35:32;4.28;;;1.42;;
19965;SDS011;10144;50.874;4.762;2022-07-04T15:37:57;3.03;;;1.00;;
19965;SDS011;10144;50.874;4.762;2022-07-04T15:40:23;4.43;;;1.13;;
19965;SDS011;10144;50.874;4.762;2022-07-04T15:42:49;6.95;;;1.30;;
19965;SDS011;10144;50.874;4.762;2022-07-04T15:45:14;8.27;;;1.42;;
19965;SDS011;10144;50.874;4.762;2022-07-04T15:47:41;1.58;;;1.20;;
19965;SDS011;10144;50.874;4.762;2022-07-04T15:50:07;3.80;;;1.13;;
19965;SDS011;10144;50.874;4.762;2022-07-04T15:52:33;2.97;;;1.30;;
19965;SDS011;10144;50.874;4.762;2022-07-04T15:54:59;3.58;;;1.30;;
19965;SDS011;10144;50.874;4.762;2022-07-04T15:57:24;4.72;;;1.50;;
19965;SDS011;10144;50.874;4.762;2022-07-04T15:59:50;5.38;;;1.50;;
19965;SDS011;10144;50.874;4.762;2022-07-04T16:02:16;2.63;;;1.50;;
19965;SDS011;10144;50.874;4.762;2022-07-04T16:04:41;2.05;;;1.30;;
19965;SDS011;10144;50.874;4.762;2022-07-04T16:07:07;3.25;;;1.50;;
19965;SDS011;10144;50.874;4.762;2022-07-04T16:09:33;2.20;;;1.30;;
19965;SDS011;10144;50.874;4.762;2022-07-04T16:11:58;3.83;;;1.50;;
19965;SDS011;10144;50.874;4.762;2022-07-04T16:14:25;3.42;;;1.50;;
19965;SDS011;10144;50.874;4.762;2022-07-04T16:16:50;3.20;;;1.30;;
19965;SDS011;10144;50.874;4.762;2022-07-04T16:19:17;6.00;;;1.40;;
19965;SDS011;10144;50.874;4.762;2022-07-04T16:21:42;3.72;;;1.33;;
19965;SDS011;10144;50.874;4.762;2022-07-04T16:24:08;5.20;;;1.67;;
19965;SDS011;10144;50.874;4.762;2022-07-04T16:26:34;2.72;;;1.25;;
19965;SDS011;10144;50.874;4.762;2022-07-04T16:28:59;2.97;;;1.38;;
19965;SDS011;10144;50.874;4.762;2022-07-04T16:31:25;3.90;;;1.65;;
19965;SDS011;10144;50.874;4.762;2022-07-04T16:33:51;2.50;;;1.30;;
19965;SDS011;10144;50.874;4.762;2022-07-04T16:36:17;2.20;;;1.10;;
19965;SDS011;10144;50.874;4.762;2022-07-04T16:38:42;3.85;;;1.40;;
19965;SDS011;10144;50.874;4.762;2022-07-04T16:41:08;2.35;;;1.30;;
19965;SDS011;10144;50.874;4.762;2022-07-04T16:43:34;4.90;;;1.60;;